createdAt,value
2023-01-02T00:04:15.112Z,1002.3
2023-01-02T00:10:33.927Z,1002.3
2023-01-02T00:14:24.523Z,1002.3
2023-01-02T00:16:52.845Z,1002.3
2023-01-02T00:21:41.080Z,1002.3
2023-01-02T00:24:09.372Z,1002.2
2023-01-02T00:26:37.618Z,1002.2
2023-01-02T00:30:20.042Z,1002.2
2023-01-02T00:34:02.452Z,1002.2
2023-01-02T00:36:30.627Z,1002.2
2023-01-02T00:40:13.083Z,1002.2
2023-01-02T00:45:17.830Z,1002.1
2023-01-02T00:55:19.103Z,1002.1
2023-01-02T01:00:20.073Z,1002.1
2023-01-02T01:05:12.175Z,1001.1
2023-01-02T01:10:25.028Z,1002.1
2023-01-02T01:12:53.310Z,1002.1
2023-01-02T01:15:21.571Z,1002.1
2023-01-02T01:20:01.726Z,1002
2023-01-02T01:24:58.275Z,1002.1
2023-01-02T01:28:40.678Z,1002.1
2023-01-02T01:31:08.982Z,1002.1
2023-01-02T01:36:13.674Z,1002.1
2023-01-02T01:41:10.220Z,1002.1
2023-01-02T01:46:06.752Z,1002
2023-01-02T01:53:39.716Z,1001.9
2023-01-02T01:56:07.969Z,1002
2023-01-02T01:59:50.399Z,1002.1
2023-01-02T02:03:32.740Z,1001.9
2023-01-02T02:06:01.021Z,1001.9
2023-01-02T02:08:29.294Z,1001.8
2023-01-02T02:10:57.554Z,1001.7
2023-01-02T02:13:25.831Z,1001.8
2023-01-02T02:15:54.071Z,1001.8
2023-01-02T02:23:18.894Z,1001.8
2023-01-02T02:32:14.232Z,1001.7
2023-01-02T02:37:18.942Z,1001.7
2023-01-02T02:42:15.476Z,1001.7
2023-01-02T02:47:12.007Z,1000.6
2023-01-02T02:52:08.639Z,1001.6
2023-01-02T02:54:44.994Z,1001.5
2023-01-02T02:57:13.252Z,1001.5
2023-01-02T02:59:41.523Z,1001.5
2023-01-02T03:02:10.052Z,1001.4
2023-01-02T03:04:38.061Z,1001.4
2023-01-02T03:07:06.321Z,1001.6
2023-01-02T03:09:34.609Z,1001.5
2023-01-02T03:12:02.858Z,1001.5
2023-01-02T03:14:31.144Z,1001.5
2023-01-02T03:16:59.435Z,1001.4
2023-01-02T03:24:16.008Z,1001.3
2023-01-02T03:29:12.525Z,1001.3
2023-01-02T03:34:09.092Z,1001.4
2023-01-02T03:39:05.602Z,1001.4
2023-01-02T03:42:56.265Z,1001.5
2023-01-02T03:45:24.454Z,1001.5
2023-01-02T03:47:52.743Z,1001.5
2023-01-02T03:50:20.980Z,1001.5
2023-01-02T03:52:49.304Z,1001.5
2023-01-02T03:55:17.519Z,1001.5
2023-01-02T03:58:59.933Z,1001.5
2023-01-02T04:02:42.418Z,1001.6
2023-01-02T04:05:10.628Z,1001.6
2023-01-02T04:10:15.367Z,1001.6
2023-01-02T04:15:11.859Z,1000.5
2023-01-02T04:20:00.205Z,1001.6
2023-01-02T04:26:10.858Z,1001.4
2023-01-02T04:31:07.452Z,1001.4
2023-01-02T04:41:16.843Z,1001.4
2023-01-02T04:45:07.456Z,1001.5
2023-01-02T04:51:18.102Z,1001.5
2023-01-02T04:56:14.632Z,1001.6
2023-01-02T05:01:11.234Z,1001.6
2023-01-02T05:07:30.029Z,1001.6
2023-01-02T05:09:58.291Z,1001.7
2023-01-02T05:12:26.544Z,1001.7
2023-01-02T05:14:54.836Z,1001.7
2023-01-02T05:18:37.251Z,1001.7
2023-01-02T05:22:19.613Z,1001.9
2023-01-02T05:26:59.791Z,1002
2023-01-02T05:29:28.073Z,1002
2023-01-02T05:31:56.336Z,1001.9
2023-01-02T05:38:15.161Z,1002
2023-01-02T05:52:07.008Z,1002
2023-01-02T05:58:17.699Z,1002
2023-01-02T06:03:14.251Z,1002.1
2023-01-02T06:08:10.751Z,1002.1
2023-01-02T06:12:01.328Z,1002.1
2023-01-02T06:14:29.608Z,1002.2
2023-01-02T06:18:12.002Z,1002.2
2023-01-02T06:23:08.525Z,1002.3
2023-01-02T06:29:19.202Z,1002.2
2023-01-02T06:31:51.254Z,1002.2
2023-01-02T06:34:23.953Z,1002.3
2023-01-02T06:38:06.320Z,1002.3
2023-01-02T06:44:17.003Z,1002.3
2023-01-02T06:49:13.527Z,1002.3
2023-01-02T06:54:10.084Z,1002.2
2023-01-02T06:59:06.588Z,1002.3
2023-01-02T07:04:11.429Z,1002.3
2023-01-02T07:08:01.917Z,1002.3
2023-01-02T07:11:44.327Z,1002.3
2023-01-02T07:14:12.586Z,1002.4
2023-01-02T07:17:55.001Z,1002.4
2023-01-02T07:21:37.385Z,1002.5
2023-01-02T07:24:05.634Z,1002.4
2023-01-02T07:27:48.049Z,1002.4
2023-01-02T07:30:16.383Z,1002.6
2023-01-02T07:40:30.284Z,1002.6
2023-01-02T07:44:16.347Z,1002.6
2023-01-02T07:49:12.892Z,1002.7
2023-01-02T07:54:09.424Z,1002.7
2023-01-02T08:05:08.437Z,1002.8
2023-01-02T08:11:19.071Z,1003
2023-01-02T08:15:09.684Z,1003.1
2023-01-02T08:20:14.410Z,1003.1
2023-01-02T08:25:10.940Z,1003.2
2023-01-02T08:35:12.231Z,1003
2023-01-02T08:40:25.211Z,1003.3
2023-01-02T08:44:15.708Z,1003.2
2023-01-02T08:49:12.266Z,1002.3
2023-01-02T08:54:08.762Z,1003.3
2023-01-02T09:00:19.517Z,1003.4
2023-01-02T09:11:26.671Z,1003.6
2023-01-02T09:15:09.075Z,1003.5
2023-01-02T09:20:13.800Z,1003.7
2023-01-02T09:25:10.268Z,1003.7
2023-01-02T09:31:29.199Z,1003.7
2023-01-02T09:33:57.407Z,1003.8
2023-01-02T09:37:39.850Z,1003.9
2023-01-02T09:41:30.482Z,1003.9
2023-01-02T09:43:58.719Z,1003.9
2023-01-02T09:47:49.271Z,1004.1
2023-01-02T09:50:17.540Z,1004.2
2023-01-02T09:54:08.173Z,1004.3
2023-01-02T09:57:58.740Z,1004.2
2023-01-02T10:03:07.870Z,1004.2
2023-01-02T10:08:08.216Z,1004.2
2023-01-02T10:12:48.382Z,1004.3
2023-01-02T10:15:16.605Z,1004.3
2023-01-02T10:17:44.905Z,1004.3
2023-01-02T10:20:13.145Z,1004.3
2023-01-02T10:22:41.402Z,1004.2
2023-01-02T10:25:09.666Z,1004.3
2023-01-02T10:27:38.015Z,1004.5
2023-01-02T10:30:06.192Z,1004.5
2023-01-02T10:35:10.912Z,1004.6
2023-01-02T10:40:07.448Z,1004.4
2023-01-02T10:51:14.667Z,1004.3
2023-01-02T10:56:11.208Z,1004.3
2023-01-02T11:11:09.024Z,1004.2
2023-01-02T11:40:06.855Z,1004.6
2023-01-02T11:46:17.512Z,1004.6
2023-01-02T11:57:32.892Z,1004.6
2023-01-02T12:01:23.493Z,1004.8
2023-01-02T12:03:51.805Z,1004.8
2023-01-02T12:07:34.168Z,1004.8
2023-01-02T12:12:38.849Z,1004.8
2023-01-02T12:15:07.104Z,1004.8
2023-01-02T12:17:35.400Z,1004.7
2023-01-02T12:20:05.814Z,1004.7
2023-01-02T12:22:31.943Z,1004.8
2023-01-02T12:25:00.187Z,1004.7
2023-01-02T12:27:28.474Z,1004.9
2023-01-02T12:32:08.749Z,1004.8
2023-01-02T12:37:13.337Z,1004.7
2023-01-02T12:39:41.594Z,1004.7
2023-01-02T12:42:09.921Z,1004.6
2023-01-02T12:44:38.127Z,1004.7
2023-01-02T12:47:06.429Z,1004.7
2023-01-02T12:49:34.674Z,1004.7
2023-01-02T12:52:02.943Z,1004.8
2023-01-02T12:54:31.191Z,1004.7
2023-01-02T12:56:59.474Z,1004.8
2023-01-02T13:02:04.343Z,1004.7
2023-01-02T13:07:08.913Z,1004.8
2023-01-02T13:12:05.460Z,1004.9
2023-01-02T13:17:02.017Z,1004.9
2023-01-02T13:20:44.392Z,1004.8
2023-01-02T13:23:12.662Z,1004.9
2023-01-02T13:25:40.937Z,1005
2023-01-02T13:28:09.192Z,1004.9
2023-01-02T13:34:21.895Z,1004.9
2023-01-02T13:39:16.496Z,1004.9
2023-01-02T13:48:11.707Z,1004.8
2023-01-02T13:53:08.213Z,1004.9
2023-01-02T13:59:42.350Z,1005.1
2023-01-02T14:04:15.442Z,1005.1
2023-01-02T14:09:11.992Z,1004.1
2023-01-02T14:20:35.572Z,1005.3
2023-01-02T14:24:29.847Z,1005.4
2023-01-02T14:26:54.423Z,1005.4
2023-01-02T14:30:45.008Z,1005.5
2023-01-02T14:33:13.264Z,1005.5
2023-01-02T14:37:03.869Z,1005.4
2023-01-02T14:39:32.135Z,1005.5
2023-01-02T14:42:00.398Z,1005.4
2023-01-02T14:44:28.669Z,1005.4
2023-01-02T14:46:56.936Z,1005.3
2023-01-02T14:52:01.673Z,1005.4
2023-01-02T14:55:52.266Z,1005.5
2023-01-02T15:00:32.448Z,1005.6
2023-01-02T15:03:00.833Z,1005.5
2023-01-02T15:06:43.056Z,1005.5
2023-01-02T15:10:25.452Z,1005.6
2023-01-02T15:14:20.474Z,1005.8
2023-01-02T15:18:06.770Z,1006
2023-01-02T15:23:48.739Z,1006.1
2023-01-02T15:33:20.836Z,1006.2
2023-01-02T15:38:25.641Z,1006.3
2023-01-02T15:42:16.167Z,1006.5
2023-01-02T15:47:25.582Z,1007.2
2023-01-02T15:51:11.533Z,1007.4
2023-01-02T15:56:24.375Z,1007.4
2023-01-02T16:00:06.755Z,1007.5
2023-01-02T16:06:17.426Z,1007.4
2023-01-02T16:25:14.120Z,1007.5
2023-01-02T16:30:10.566Z,1007.4
2023-01-02T16:35:07.116Z,1007.3
2023-01-02T16:41:17.828Z,1007.4
2023-01-02T16:45:08.347Z,1007.6
2023-01-02T17:05:10.932Z,1008.1
2023-01-02T17:10:15.663Z,1008.3
2023-01-02T17:14:06.194Z,1008.5
2023-01-02T17:19:10.879Z,1008.5
2023-01-02T17:30:09.990Z,1008.7
2023-01-02T17:35:06.517Z,1008.7
2023-01-02T17:37:42.947Z,1008.8
2023-01-02T17:40:11.207Z,1008.9
2023-01-02T17:42:39.472Z,1008.9
2023-01-02T17:45:07.736Z,1008.8
2023-01-02T17:47:59.833Z,1008.9
2023-01-02T17:50:04.244Z,1009
2023-01-02T17:52:32.532Z,1009
2023-01-02T17:55:00.796Z,1009
2023-01-02T17:57:29.085Z,1009.1
2023-01-02T18:02:33.915Z,1009.4
2023-01-02T18:06:16.210Z,1009.2
2023-01-02T18:08:44.448Z,1009.2
2023-01-02T18:11:12.679Z,1009.2
2023-01-02T18:13:40.995Z,1009.5
2023-01-02T18:17:29.993Z,1009.4
2023-01-02T18:24:56.363Z,1009.6
2023-01-02T18:27:32.857Z,1009.6
2023-01-02T18:31:15.336Z,1009.5
2023-01-02T18:33:43.511Z,1009.7
2023-01-02T18:37:25.876Z,1009.8
2023-01-02T18:41:08.304Z,1009.6
2023-01-02T18:43:36.532Z,1009.7
2023-01-02T18:47:18.938Z,1009.8
2023-01-02T18:56:22.551Z,1009.8
2023-01-02T19:00:13.111Z,1009.7
2023-01-02T19:17:30.933Z,1009.9
2023-01-02T19:21:13.332Z,1010.2
2023-01-02T19:23:41.588Z,1010.1
2023-01-02T19:26:09.900Z,1010.3
2023-01-02T19:28:38.150Z,1010.4
2023-01-02T19:31:06.478Z,1010.3
2023-01-02T19:33:34.665Z,1010.4
2023-01-02T19:37:17.036Z,1010.4
2023-01-02T19:42:21.818Z,1010.7
2023-01-02T19:47:18.362Z,1010.6
2023-01-02T19:52:14.836Z,1010.7
2023-01-02T19:57:11.345Z,1010.6
2023-01-02T20:08:18.632Z,1010.7
2023-01-02T20:13:15.153Z,1010.9
2023-01-02T20:18:11.660Z,1011
2023-01-02T20:23:16.336Z,1011
2023-01-02T20:26:58.759Z,1011.1
2023-01-02T20:31:55.275Z,1011.1
2023-01-02T20:36:51.814Z,1011.2
2023-01-02T20:41:48.406Z,1011.3
2023-01-02T20:46:44.975Z,1011.3
2023-01-02T20:49:13.169Z,1011.3
2023-01-02T20:52:56.988Z,1011.5
2023-01-02T20:56:38.034Z,1011.6
2023-01-02T21:00:28.586Z,1011.6
2023-01-02T21:02:57.006Z,1011.6
2023-01-02T21:05:25.094Z,1011.6
2023-01-02T21:09:15.691Z,1011.7
2023-01-02T21:11:43.976Z,1011.6
2023-01-02T21:14:12.215Z,1010.6
2023-01-02T21:16:40.472Z,1011.7
2023-01-02T21:19:08.722Z,1011.8
2023-01-02T21:21:37.025Z,1011.8
2023-01-02T21:25:03.021Z,1012
2023-01-02T21:27:31.275Z,1012.1
2023-01-02T21:29:59.555Z,1012.1
2023-01-02T21:36:18.423Z,1012.1
2023-01-02T21:41:14.924Z,1012.1
2023-01-02T21:46:11.570Z,1012.2
2023-01-02T21:51:08.033Z,1012.2
2023-01-02T21:57:23.456Z,1012.3
2023-01-02T21:59:55.125Z,1012.2
2023-01-02T22:02:29.170Z,1012.2
2023-01-02T22:04:51.692Z,1012.2
2023-01-02T22:07:32.778Z,1012.3
2023-01-02T22:09:48.289Z,1012.3
2023-01-02T22:12:16.479Z,1012.3
2023-01-02T22:15:58.945Z,1012.3
2023-01-02T22:19:41.389Z,1012.4
2023-01-02T22:22:09.516Z,1012.4
2023-01-02T22:28:12.003Z,1011.4
2023-01-02T22:33:08.591Z,1012.6
2023-01-02T22:38:13.272Z,1012.7
2023-01-02T22:43:09.754Z,1012.8
2023-01-02T22:48:06.336Z,1012.8
2023-01-02T22:58:07.604Z,1012.9
2023-01-02T23:04:18.355Z,1013
2023-01-02T23:09:14.776Z,1013
2023-01-02T23:15:33.642Z,1012.9
2023-01-02T23:21:52.533Z,1012.9
2023-01-02T23:26:32.762Z,1012.9
2023-01-02T23:30:23.279Z,1012.9
2023-01-02T23:34:05.625Z,1012.9
2023-01-02T23:36:33.943Z,1012.9
2023-01-02T23:39:02.287Z,1013
2023-01-02T23:41:30.440Z,1013
2023-01-02T23:43:58.714Z,1012.9
2023-01-02T23:46:27.094Z,1013
2023-01-02T23:48:55.280Z,1013
2023-01-02T23:51:23.514Z,1013
2023-01-02T23:55:14.151Z,1013.1
